createdAt,value
2023-05-10T00:00:17.954Z,100963.33
2023-05-10T00:03:11.498Z,100959.11
2023-05-10T00:05:44.974Z,100958.41
2023-05-10T00:08:18.820Z,100957.08
2023-05-10T00:10:52.429Z,100952.91
2023-05-10T00:13:26.536Z,100953.30
2023-05-10T00:16:00.411Z,100947.96
2023-05-10T00:18:33.706Z,100947.86
2023-05-10T00:21:07.713Z,100941.85
2023-05-10T00:23:40.956Z,100935.84
2023-05-10T00:26:14.923Z,100935.61
2023-05-10T00:28:49.875Z,100940.49
2023-05-10T00:31:25.758Z,100936.77
2023-05-10T00:33:59.757Z,100933.34
2023-05-10T00:36:34.138Z,100933.77
2023-05-10T00:39:08.030Z,100934.14
2023-05-10T00:41:42.156Z,100934.15
2023-05-10T00:44:16.385Z,100928.60
2023-05-10T00:46:50.496Z,100931.27
2023-05-10T00:49:24.081Z,100927.78
2023-05-10T00:51:57.558Z,100929.59
2023-05-10T00:54:31.326Z,100928.46
2023-05-10T00:57:04.699Z,100929.39
2023-05-10T00:59:38.600Z,100927.39
2023-05-10T01:02:12.411Z,100926.06
2023-05-10T01:04:47.689Z,100925.60
2023-05-10T01:07:21.090Z,100921.52
2023-05-10T01:09:54.788Z,100919.79
2023-05-10T01:12:28.612Z,100919.66
2023-05-10T01:15:02.924Z,100922.42
2023-05-10T01:17:37.882Z,100919.82
2023-05-10T01:20:13.902Z,100914.32
2023-05-10T01:23:31.483Z,100915.13
2023-05-10T01:26:27.184Z,100915.23
2023-05-10T01:29:18.872Z,100914.33
2023-05-10T01:32:27.116Z,100918.73
2023-05-10T01:35:06.072Z,100919.14
2023-05-10T01:37:49.834Z,100916.52
2023-05-10T01:40:30.291Z,100918.87
2023-05-10T01:43:08.040Z,100913.62
2023-05-10T01:45:47.409Z,100912.73
2023-05-10T01:48:23.720Z,100910.08
2023-05-10T01:50:59.431Z,100908.20
2023-05-10T01:53:37.344Z,100908.19
2023-05-10T01:56:14.042Z,100907.60
2023-05-10T01:58:51.326Z,100903.60
2023-05-10T02:01:27.503Z,100901.48
2023-05-10T02:04:02.664Z,100901.46
2023-05-10T02:06:37.095Z,100901.08
2023-05-10T02:09:12.028Z,100899.89
2023-05-10T02:11:46.536Z,100897.23
2023-05-10T02:14:21.566Z,100898.14
2023-05-10T02:16:57.475Z,100899.23
2023-05-10T02:19:34.219Z,100898.09
2023-05-10T02:22:09.517Z,100898.05
2023-05-10T02:24:44.719Z,100896.93
2023-05-10T02:27:20.038Z,100896.91
2023-05-10T02:29:55.324Z,100891.56
2023-05-10T02:32:32.071Z,100894.34
2023-05-10T02:35:07.173Z,100892.66
2023-05-10T02:37:43.647Z,100893.86
2023-05-10T02:40:19.029Z,100896.02
2023-05-10T02:42:57.652Z,100898.89
2023-05-10T02:45:31.814Z,100896.58
2023-05-10T02:48:05.568Z,100896.33
2023-05-10T02:50:40.187Z,100901.77
2023-05-10T02:53:18.834Z,100904.04
2023-05-10T02:56:00.183Z,100901.01
2023-05-10T02:58:34.188Z,100901.71
2023-05-10T03:01:09.310Z,100906.30
2023-05-10T03:03:43.083Z,100906.50
2023-05-10T03:06:17.701Z,100904.23
2023-05-10T03:08:51.502Z,100904.17
2023-05-10T03:11:42.248Z,100903.59
2023-05-10T03:14:27.157Z,100904.84
2023-05-10T03:17:07.212Z,100906.31
2023-05-10T03:19:48.570Z,100907.58
2023-05-10T03:22:27.516Z,100909.70
2023-05-10T03:25:03.369Z,100907.67
2023-05-10T03:27:38.073Z,100903.91
2023-05-10T03:30:15.096Z,100904.23
2023-05-10T03:32:49.000Z,100903.46
2023-05-10T03:35:23.580Z,100905.20
2023-05-10T03:37:57.355Z,100901.95
2023-05-10T03:40:33.485Z,100903.54
2023-05-10T03:43:07.709Z,100903.80
2023-05-10T03:45:41.409Z,100901.09
2023-05-10T03:48:15.199Z,100900.55
2023-05-10T03:50:50.680Z,100900.79
2023-05-10T03:53:24.854Z,100901.57
2023-05-10T03:55:58.803Z,100898.42
2023-05-10T03:58:32.578Z,100895.16
2023-05-10T04:01:08.298Z,100896.07
2023-05-10T04:03:41.807Z,100895.27
2023-05-10T04:06:15.555Z,100896.83
2023-05-10T04:08:49.258Z,100896.67
2023-05-10T04:11:24.223Z,100896.86
2023-05-10T04:13:58.004Z,100900.20
2023-05-10T04:16:31.676Z,100902.02
2023-05-10T04:19:05.600Z,100903.45
2023-05-10T04:21:39.278Z,100906.65
2023-05-10T04:24:13.576Z,100905.34
2023-05-10T04:26:47.370Z,100904.14
2023-05-10T04:29:21.231Z,100901.04
2023-05-10T04:31:55.283Z,100903.13
2023-05-10T04:34:29.033Z,100907.55
2023-05-10T04:37:02.751Z,100903.02
2023-05-10T04:39:36.464Z,100901.95
2023-05-10T04:42:10.582Z,100904.95
2023-05-10T04:44:44.898Z,100904.13
2023-05-10T04:47:18.412Z,100903.23
2023-05-10T04:49:52.235Z,100902.46
2023-05-10T04:52:53.582Z,100909.83
2023-05-10T04:56:19.881Z,100911.54
2023-05-10T04:58:54.415Z,100908.82
2023-05-10T05:01:27.955Z,100905.11
2023-05-10T05:04:01.911Z,100904.73
2023-05-10T05:06:35.627Z,100904.88
2023-05-10T05:09:11.409Z,100899.83
2023-05-10T05:11:44.888Z,100901.86
2023-05-10T05:14:18.656Z,100896.59
2023-05-10T05:16:52.527Z,100893.71
2023-05-10T05:19:26.278Z,100892.77
2023-05-10T05:21:59.852Z,100892.02
2023-05-10T05:24:37.853Z,100893.14
2023-05-10T05:27:11.867Z,100889.64
2023-05-10T05:29:45.544Z,100889.98
2023-05-10T05:32:19.226Z,100891.68
2023-05-10T05:34:53.006Z,100891.30
2023-05-10T05:37:26.881Z,100890.17
2023-05-10T05:40:02.763Z,100891.36
2023-05-10T05:42:36.352Z,100889.35
2023-05-10T05:45:14.686Z,100885.96
2023-05-10T05:47:46.904Z,100886.14
2023-05-10T05:50:20.996Z,100893.88
2023-05-10T05:52:54.463Z,100888.77
2023-05-10T05:55:28.435Z,100893.09
2023-05-10T05:58:02.641Z,100891.31
2023-05-10T06:00:36.191Z,100887.36
2023-05-10T06:03:10.008Z,100885.44
2023-05-10T06:05:43.715Z,100885.06
2023-05-10T06:08:17.737Z,100887.06
2023-05-10T06:10:51.706Z,100886.27
2023-05-10T06:13:25.921Z,100885.82
2023-05-10T06:15:59.853Z,100884.33
2023-05-10T06:18:33.460Z,100883.81
2023-05-10T06:21:07.072Z,100880.81
2023-05-10T06:23:41.337Z,100878.20
2023-05-10T06:26:15.158Z,100874.23
2023-05-10T06:28:49.288Z,100876.95
2023-05-10T06:31:23.112Z,100875.02
2023-05-10T06:33:57.258Z,100873.13
2023-05-10T06:36:32.209Z,100871.23
2023-05-10T06:39:06.164Z,100874.67
2023-05-10T06:41:39.885Z,100875.50
2023-05-10T06:44:14.295Z,100869.27
2023-05-10T06:46:48.313Z,100863.94
2023-05-10T06:49:22.764Z,100865.77
2023-05-10T06:51:56.539Z,100869.59
2023-05-10T06:54:30.365Z,100868.86
2023-05-10T06:57:08.768Z,100871.52
2023-05-10T06:59:47.085Z,100869.73
2023-05-10T07:02:21.261Z,100868.38
2023-05-10T07:04:55.580Z,100867.78
2023-05-10T07:07:30.239Z,100863.97
2023-05-10T07:10:04.117Z,100862.59
2023-05-10T07:12:38.305Z,100860.04
2023-05-10T07:15:13.669Z,100864.55
2023-05-10T07:17:47.644Z,100863.92
2023-05-10T07:20:21.809Z,100859.88
2023-05-10T07:22:55.159Z,100859.12
2023-05-10T07:25:28.792Z,100849.13
2023-05-10T07:28:02.567Z,100851.52
2023-05-10T07:30:36.110Z,100857.27
2023-05-10T07:33:10.283Z,100857.17
2023-05-10T07:35:44.495Z,100858.29
2023-05-10T07:38:18.773Z,100862.05
2023-05-10T07:40:52.663Z,100865.03
2023-05-10T07:43:26.049Z,100859.08
2023-05-10T07:46:01.160Z,100864.45
2023-05-10T07:48:35.641Z,100865.16
2023-05-10T07:51:10.691Z,100858.73
2023-05-10T07:53:44.621Z,100859.15
2023-05-10T07:56:30.971Z,100862.65
2023-05-10T07:59:06.463Z,100871.71
2023-05-10T08:01:40.539Z,100870.59
2023-05-10T08:04:14.349Z,100868.54
2023-05-10T08:06:48.130Z,100864.98
2023-05-10T08:09:25.344Z,100857.64
2023-05-10T08:12:00.678Z,100861.92
2023-05-10T08:14:35.558Z,100864.64
2023-05-10T08:17:09.389Z,100862.63
2023-05-10T08:19:42.927Z,100856.23
2023-05-10T08:22:17.010Z,100853.23
2023-05-10T08:24:51.286Z,100846.45
2023-05-10T08:27:25.832Z,100841.92
2023-05-10T08:29:59.398Z,100841.84
2023-05-10T08:32:33.063Z,100841.55
2023-05-10T08:35:07.002Z,100842.78
2023-05-10T08:37:40.320Z,100835.19
2023-05-10T08:40:17.083Z,100842.67
2023-05-10T08:42:58.788Z,100843.04
2023-05-10T08:45:40.308Z,100841.60
2023-05-10T08:48:14.681Z,100842.58
2023-05-10T08:50:50.533Z,100847.67
2023-05-10T08:53:27.421Z,100845.09
2023-05-10T08:56:01.952Z,100836.61
2023-05-10T08:58:35.861Z,100841.12
2023-05-10T09:01:10.229Z,100840.83
2023-05-10T09:03:45.898Z,100835.89
2023-05-10T09:06:19.812Z,100830.69
2023-05-10T09:08:54.757Z,100833.27
2023-05-10T09:11:30.450Z,100827.27
2023-05-10T09:14:04.345Z,100825.70
2023-05-10T09:16:38.345Z,100825.29
2023-05-10T09:19:12.660Z,100820.48
2023-05-10T09:21:46.590Z,100827.65
2023-05-10T09:24:21.322Z,100822.86
2023-05-10T09:26:55.018Z,100821.02
2023-05-10T09:29:29.600Z,100820.63
2023-05-10T09:32:03.272Z,100824.72
2023-05-10T09:34:41.598Z,100829.57
2023-05-10T09:37:13.465Z,100830.07
2023-05-10T09:39:48.317Z,100836.95
2023-05-10T09:42:22.834Z,100831.55
2023-05-10T09:44:56.354Z,100833.11
2023-05-10T09:47:30.031Z,100832.16
2023-05-10T09:50:05.889Z,100824.66
2023-05-10T09:52:51.779Z,100805.54
2023-05-10T09:55:26.939Z,100802.89
2023-05-10T09:58:05.765Z,100794.98
2023-05-10T10:00:42.688Z,100794.73
2023-05-10T10:03:20.096Z,100797.42
2023-05-10T10:05:54.665Z,100804.70
2023-05-10T10:08:28.358Z,100795.05
2023-05-10T10:11:02.029Z,100794.46
2023-05-10T10:13:35.712Z,100783.80
2023-05-10T10:16:10.946Z,100788.05
2023-05-10T10:18:45.837Z,100780.43
2023-05-10T10:21:20.175Z,100780.23
2023-05-10T10:23:54.329Z,100783.44
2023-05-10T10:26:28.907Z,100779.49
2023-05-10T10:29:13.602Z,100785.11
2023-05-10T10:31:55.102Z,100783.41
2023-05-10T10:34:30.958Z,100777.02
2023-05-10T10:37:09.759Z,100772.37
2023-05-10T10:39:44.681Z,100777.52
2023-05-10T10:42:39.236Z,100772.52
2023-05-10T10:45:19.682Z,100768.47
2023-05-10T10:47:56.208Z,100777.62
2023-05-10T10:50:30.374Z,100770.48
2023-05-10T10:53:14.971Z,100787.27
2023-05-10T10:55:52.448Z,100775.63
2023-05-10T10:58:36.202Z,100761.02
2023-05-10T11:01:18.433Z,100760.08
2023-05-10T11:04:22.011Z,100761.56
2023-05-10T11:07:22.787Z,100762.53
2023-05-10T11:09:57.417Z,100762.90
2023-05-10T11:12:32.086Z,100761.44
2023-05-10T11:15:06.810Z,100746.56
2023-05-10T11:17:40.898Z,100739.35
2023-05-10T11:20:17.316Z,100740.11
2023-05-10T11:22:57.621Z,100751.04
2023-05-10T11:25:32.736Z,100748.22
2023-05-10T11:28:08.012Z,100748.17
2023-05-10T11:30:43.414Z,100753.16
2023-05-10T11:33:22.113Z,100742.63
2023-05-10T11:35:55.742Z,100745.69
2023-05-10T11:38:30.199Z,100735.67
2023-05-10T11:41:04.392Z,100740.96
2023-05-10T11:43:39.782Z,100743.05
2023-05-10T11:46:15.332Z,100730.41
2023-05-10T11:48:50.556Z,100736.46
2023-05-10T11:51:27.096Z,100744.14
2023-05-10T11:54:02.250Z,100745.36
2023-05-10T11:56:38.077Z,100732.41
2023-05-10T11:59:12.498Z,100732.95
2023-05-10T12:01:46.692Z,100736.69
2023-05-10T12:04:21.634Z,100728.35
2023-05-10T12:06:56.284Z,100728.77
2023-05-10T12:09:42.573Z,100721.77
2023-05-10T12:12:20.259Z,100710.39
2023-05-10T12:14:55.295Z,100713.31
2023-05-10T12:17:32.380Z,100718.58
2023-05-10T12:20:18.444Z,100712.27
2023-05-10T12:22:55.254Z,100715.76
2023-05-10T12:25:33.001Z,100718.42
2023-05-10T12:31:00.580Z,100700.83
2023-05-10T12:33:43.165Z,100712.30
2023-05-10T12:36:18.563Z,100724.98
2023-05-10T12:38:53.145Z,100719.38
2023-05-10T12:41:26.429Z,100718.48
2023-05-10T12:44:00.342Z,100712.54
2023-05-10T12:46:34.144Z,100705.03
2023-05-10T12:49:09.352Z,100709.55
2023-05-10T12:51:43.805Z,100705.11
2023-05-10T12:54:17.389Z,100707.33
2023-05-10T12:56:51.346Z,100704.14
2023-05-10T12:59:25.181Z,100699.13
2023-05-10T13:01:59.521Z,100705.38
2023-05-10T13:04:33.992Z,100695.50
2023-05-10T13:07:07.909Z,100698.74
2023-05-10T13:09:41.414Z,100690.44
2023-05-10T13:12:14.979Z,100696.14
2023-05-10T13:14:48.923Z,100697.08
2023-05-10T13:17:22.585Z,100697.75
2023-05-10T13:19:56.079Z,100705.96
2023-05-10T13:22:39.800Z,100709.73
2023-05-10T13:25:15.851Z,100699.29
2023-05-10T13:27:49.245Z,100697.71
2023-05-10T13:30:22.926Z,100693.27
2023-05-10T13:32:56.748Z,100695.73
2023-05-10T13:35:30.254Z,100695.38
2023-05-10T13:38:03.899Z,100698.04
2023-05-10T13:40:37.282Z,100694.23
2023-05-10T13:43:11.630Z,100697.84
2023-05-10T13:45:45.467Z,100700.56
2023-05-10T13:48:19.021Z,100691.83
2023-05-10T13:50:52.443Z,100689.48
2023-05-10T13:53:26.360Z,100692.59
2023-05-10T13:56:01.396Z,100691.26
2023-05-10T13:58:36.696Z,100684.04
2023-05-10T14:01:10.541Z,100683.20
2023-05-10T14:03:44.747Z,100677.36
2023-05-10T14:06:18.833Z,100674.86
2023-05-10T14:08:52.676Z,100677.11
2023-05-10T14:11:26.300Z,100677.35
2023-05-10T14:13:59.788Z,100667.98
2023-05-10T14:16:34.236Z,100665.29
2023-05-10T14:19:08.301Z,100665.85
2023-05-10T14:21:42.292Z,100667.95
2023-05-10T14:24:16.704Z,100672.79
2023-05-10T14:26:55.341Z,100671.94
2023-05-10T14:29:30.744Z,100673.05
2023-05-10T14:32:05.228Z,100677.46
2023-05-10T14:34:39.422Z,100659.52
2023-05-10T14:37:14.537Z,100665.00
2023-05-10T14:39:48.881Z,100662.49
2023-05-10T14:42:22.677Z,100659.77
2023-05-10T14:44:56.734Z,100659.83
2023-05-10T14:47:31.660Z,100656.77
2023-05-10T14:50:05.935Z,100654.37
2023-05-10T14:52:39.469Z,100657.41
2023-05-10T14:55:13.867Z,100664.39
2023-05-10T14:57:48.697Z,100665.88
2023-05-10T15:00:23.792Z,100658.41
2023-05-10T15:02:58.897Z,100660.77
2023-05-10T15:05:33.762Z,100658.08
2023-05-10T15:08:08.333Z,100661.91
2023-05-10T15:10:42.962Z,100656.75
2023-05-10T15:13:16.647Z,100655.33
2023-05-10T15:15:50.555Z,100651.23
2023-05-10T15:18:26.715Z,100654.12
2023-05-10T15:21:01.123Z,100652.31
2023-05-10T15:23:34.644Z,100650.72
2023-05-10T15:26:09.105Z,100653.02
2023-05-10T15:28:42.582Z,100650.64
2023-05-10T15:31:16.134Z,100647.33
2023-05-10T15:33:49.533Z,100647.02
2023-05-10T15:36:23.427Z,100645.55
2023-05-10T15:38:57.772Z,100644.11
2023-05-10T15:41:31.679Z,100645.25
2023-05-10T15:44:06.801Z,100650.49
2023-05-10T15:46:40.452Z,100650.73
2023-05-10T15:49:14.349Z,100650.70
2023-05-10T15:51:48.309Z,100654.96
2023-05-10T15:54:23.195Z,100652.63
2023-05-10T15:56:57.183Z,100653.00
2023-05-10T15:59:30.947Z,100646.97
2023-05-10T16:02:05.572Z,100644.91
2023-05-10T16:04:39.793Z,100642.48
2023-05-10T16:07:13.553Z,100644.52
2023-05-10T16:09:47.390Z,100646.39
2023-05-10T16:12:21.145Z,100649.74
2023-05-10T16:14:54.901Z,100657.27
2023-05-10T16:17:29.544Z,100652.17
2023-05-10T16:20:04.701Z,100648.95
2023-05-10T16:22:39.311Z,100646.67
2023-05-10T16:25:14.457Z,100648.58
2023-05-10T16:27:48.274Z,100648.31
2023-05-10T16:30:23.651Z,100652.27
2023-05-10T16:32:58.621Z,100650.22
2023-05-10T16:35:33.118Z,100657.34
2023-05-10T16:38:07.085Z,100654.28
2023-05-10T16:40:41.298Z,100662.02
2023-05-10T16:43:15.425Z,100660.06
2023-05-10T16:45:49.286Z,100662.52
2023-05-10T16:48:22.886Z,100664.43
2023-05-10T16:50:57.142Z,100665.26
2023-05-10T16:53:31.496Z,100660.51
2023-05-10T16:56:06.342Z,100664.11
2023-05-10T16:58:40.596Z,100665.83
2023-05-10T17:01:14.424Z,100662.08
2023-05-10T17:03:49.184Z,100665.98
2023-05-10T17:06:23.503Z,100669.77
2023-05-10T17:08:57.599Z,100673.73
2023-05-10T17:11:31.337Z,100675.86
2023-05-10T17:14:05.127Z,100678.13
2023-05-10T17:16:38.994Z,100682.61
2023-05-10T17:19:13.087Z,100683.80
2023-05-10T17:21:46.893Z,100685.16
2023-05-10T17:24:20.975Z,100684.86
2023-05-10T17:26:55.659Z,100685.44
2023-05-10T17:29:32.461Z,100685.69
2023-05-10T17:32:06.766Z,100687.95
2023-05-10T17:34:41.186Z,100687.86
2023-05-10T17:37:14.685Z,100693.63
2023-05-10T17:39:48.112Z,100697.27
2023-05-10T17:42:21.909Z,100698.50
2023-05-10T17:44:56.143Z,100698.62
2023-05-10T17:47:30.644Z,100702.09
2023-05-10T17:50:05.487Z,100702.21
2023-05-10T17:52:39.784Z,100701.13
2023-05-10T17:55:14.659Z,100706.36
2023-05-10T17:57:50.566Z,100711.77
2023-05-10T18:00:26.120Z,100712.21
2023-05-10T18:02:59.857Z,100713.16
2023-05-10T18:05:37.414Z,100716.47
2023-05-10T18:08:11.333Z,100718.11
2023-05-10T18:10:45.007Z,100719.11
2023-05-10T18:13:19.408Z,100718.61
2023-05-10T18:15:53.000Z,100720.05
2023-05-10T18:18:27.090Z,100722.18
2023-05-10T18:21:01.136Z,100726.27
2023-05-10T18:23:34.982Z,100724.49
2023-05-10T18:26:09.071Z,100727.63
2023-05-10T18:28:42.910Z,100732.61
2023-05-10T18:31:16.758Z,100734.77
2023-05-10T18:33:50.771Z,100738.82
2023-05-10T18:36:25.027Z,100746.02
2023-05-10T18:38:59.032Z,100751.93
2023-05-10T18:41:32.735Z,100755.27
2023-05-10T18:44:06.625Z,100753.66
2023-05-10T18:46:40.916Z,100753.66
2023-05-10T18:49:15.908Z,100757.60
2023-05-10T18:51:50.070Z,100759.55
2023-05-10T18:54:24.388Z,100763.44
2023-05-10T18:56:59.019Z,100762.33
2023-05-10T18:59:33.463Z,100763.80
2023-05-10T19:02:08.097Z,100764.71
2023-05-10T19:04:45.075Z,100765.79
2023-05-10T19:07:19.607Z,100765.89
2023-05-10T19:09:55.981Z,100765.55
2023-05-10T19:12:30.074Z,100766.79
2023-05-10T19:15:05.421Z,100767.60
2023-05-10T19:17:45.023Z,100769.16
2023-05-10T19:20:29.525Z,100771.05
2023-05-10T19:23:10.029Z,100771.80
2023-05-10T19:25:47.629Z,100770.66
2023-05-10T19:28:21.985Z,100766.92
2023-05-10T19:30:57.042Z,100767.34
2023-05-10T19:33:32.361Z,100766.89
2023-05-10T19:36:10.163Z,100768.02
2023-05-10T19:38:49.469Z,100770.25
2023-05-10T19:41:24.321Z,100773.30
2023-05-10T19:43:58.746Z,100770.69
2023-05-10T19:46:33.346Z,100769.88
2023-05-10T19:49:09.901Z,100775.17
2023-05-10T19:51:45.194Z,100774.38
2023-05-10T19:54:19.340Z,100778.45
2023-05-10T19:56:53.494Z,100774.42
2023-05-10T19:59:29.201Z,100775.45
2023-05-10T20:02:04.622Z,100778.83
2023-05-10T20:04:38.241Z,100780.71
2023-05-10T20:07:13.252Z,100781.33
2023-05-10T20:09:48.604Z,100782.95
2023-05-10T20:12:23.386Z,100780.31
2023-05-10T20:14:57.745Z,100781.27
2023-05-10T20:17:33.622Z,100781.66
2023-05-10T20:20:08.864Z,100781.58
2023-05-10T20:22:42.934Z,100784.73
2023-05-10T20:25:18.397Z,100786.66
2023-05-10T20:27:52.404Z,100785.64
2023-05-10T20:30:27.108Z,100782.42
2023-05-10T20:33:02.366Z,100789.23
2023-05-10T20:35:36.234Z,100790.25
2023-05-10T20:38:09.987Z,100788.30
2023-05-10T20:40:43.834Z,100790.35
2023-05-10T20:43:17.429Z,100790.45
2023-05-10T20:45:51.094Z,100792.92
2023-05-10T20:48:24.613Z,100797.52
2023-05-10T20:50:58.658Z,100793.60
2023-05-10T20:53:32.171Z,100797.95
2023-05-10T20:56:06.280Z,100802.13
2023-05-10T20:58:40.503Z,100808.45
2023-05-10T21:01:14.621Z,100806.38
2023-05-10T21:03:48.376Z,100810.41
2023-05-10T21:06:22.846Z,100811.11
2023-05-10T21:08:56.731Z,100814.45
2023-05-10T21:11:30.099Z,100814.41
2023-05-10T21:14:04.035Z,100813.61
2023-05-10T21:16:37.604Z,100815.00
2023-05-10T21:19:11.551Z,100821.11
2023-05-10T21:21:44.860Z,100823.80
2023-05-10T21:24:18.578Z,100824.52
2023-05-10T21:26:52.557Z,100823.02
2023-05-10T21:29:26.433Z,100818.27
2023-05-10T21:32:00.403Z,100825.17
2023-05-10T21:34:34.186Z,100827.67
2023-05-10T21:37:07.998Z,100830.95
2023-05-10T21:39:41.600Z,100827.41
2023-05-10T21:42:15.371Z,100828.94
2023-05-10T21:44:48.735Z,100828.33
2023-05-10T21:47:22.209Z,100830.45
2023-05-10T21:49:56.079Z,100829.79
2023-05-10T21:52:29.764Z,100830.55
2023-05-10T21:55:04.637Z,100832.65
2023-05-10T21:57:38.475Z,100835.94
2023-05-10T22:00:13.995Z,100839.86
2023-05-10T22:02:48.026Z,100835.54
2023-05-10T22:05:21.935Z,100837.83
2023-05-10T22:07:55.421Z,100836.70
2023-05-10T22:10:28.958Z,100837.54
2023-05-10T22:13:03.650Z,100839.36
2023-05-10T22:15:37.189Z,100841.05
2023-05-10T22:18:10.790Z,100839.35
2023-05-10T22:20:45.879Z,100843.39
2023-05-10T22:23:19.504Z,100845.92
2023-05-10T22:25:52.928Z,100846.36
2023-05-10T22:28:26.458Z,100853.51
2023-05-10T22:31:00.168Z,100852.69
2023-05-10T22:33:33.435Z,100855.02
2023-05-10T22:36:07.898Z,100859.13
2023-05-10T22:38:41.498Z,100862.59
2023-05-10T22:41:15.102Z,100859.30
2023-05-10T22:43:48.827Z,100863.30
2023-05-10T22:46:22.233Z,100865.02
2023-05-10T22:48:56.880Z,100865.98
2023-05-10T22:51:31.814Z,100869.98
2023-05-10T22:54:07.508Z,100868.70
2023-05-10T22:56:41.345Z,100868.66
2023-05-10T22:59:15.173Z,100868.38
2023-05-10T23:01:49.424Z,100869.48
2023-05-10T23:04:22.977Z,100869.59
2023-05-10T23:06:56.957Z,100871.54
2023-05-10T23:09:30.866Z,100871.28
2023-05-10T23:12:04.882Z,100870.11
2023-05-10T23:14:38.595Z,100874.41
2023-05-10T23:17:12.063Z,100876.15
2023-05-10T23:19:45.741Z,100879.14
2023-05-10T23:22:19.359Z,100876.41
2023-05-10T23:24:53.092Z,100873.96
2023-05-10T23:27:29.856Z,100872.38
2023-05-10T23:30:03.635Z,100875.25
2023-05-10T23:32:37.188Z,100874.63
2023-05-10T23:35:12.286Z,100874.73
2023-05-10T23:37:45.719Z,100873.77
2023-05-10T23:40:19.660Z,100874.77
2023-05-10T23:42:53.416Z,100876.13
2023-05-10T23:45:27.586Z,100874.81
2023-05-10T23:48:01.167Z,100876.96
2023-05-10T23:50:35.076Z,100875.07
2023-05-10T23:53:08.712Z,100874.67
2023-05-10T23:55:42.679Z,100869.66
2023-05-10T23:58:16.126Z,100872.70
